Collegedale, Tennessee
Current Conditions -  °F | °C
As of 3:53 PM on Friday 28 Nov 2014 (Local Time) from KCHA Reporting Station
Clear Clear  
Wind Chill:   Ceiling: Unl
Heat Index:   Visibility: 10mi
Dew Point: -9°   Wind: 0mph
Humidity: 28%   Direction: NA
Pressure: 30.31"   Gusts: NA
Location:  35.06°N, 85.07°W
Report Text: KCHA 282053Z 00000KT 10SM CLR 08/M09 A3031 RMK AO2 SLP265 T00831094 56024
Loading
Personal Weather Stations






























Interactive Weather Map New forecast layout! Learn more

10-Day Weather Forecast

Advertisements
Track Severe Weather on mobile